Time;durP1;ratioP1;P1;durP2;ratioP2;P2;SDS_P1;SDS_P2;PMS_P1;PMS_P2;Temp;Humidity;BMP_temperature;BMP_pressure;BME280_temperature;BME280_humidity;BME280_pressure;Samples;Min_cycle;Max_cycle;Signal;HPM_P1;HPM_P2
2022/08/02 00:01:21;;;;;;;;;;;23.90;47.90;;;;;;491631;240;2122;-73
2022/08/02 00:03:22;;;;;;;;;;;23.90;47.70;;;;;;491662;240;1277;-73
2022/08/02 00:05:24;;;;;;;;;;;23.90;47.70;;;;;;491632;240;1170;-73
2022/08/02 00:07:25;;;;;;;;;;;23.90;47.80;;;;;;491537;240;1144;-73
2022/08/02 00:09:26;;;;;;;;;;;23.80;47.80;;;;;;491603;240;1373;-73
2022/08/02 00:11:28;;;;;;;;;;;23.80;47.90;;;;;;491646;240;1218;-73
2022/08/02 00:13:29;;;;;;;;;;;23.80;48.00;;;;;;491585;240;1110;-73
2022/08/02 00:15:30;;;;;;;;;;;23.80;48.00;;;;;;491575;240;1236;-73
2022/08/02 00:17:32;;;;;;;;;;;23.80;48.00;;;;;;491624;240;1172;-73
2022/08/02 00:19:33;;;;;;;;;;;23.80;47.90;;;;;;491597;240;1154;-73
2022/08/02 00:21:34;;;;;;;;;;;23.80;47.80;;;;;;491641;240;2188;-73
2022/08/02 00:23:36;;;;;;;;;;;23.80;48.00;;;;;;491588;240;1112;-73
2022/08/02 00:25:37;;;;;;;;;;;23.70;48.10;;;;;;491587;240;1143;-73
2022/08/02 00:27:38;;;;;;;;;;;23.60;48.30;;;;;;491637;240;1231;-73
2022/08/02 00:29:40;;;;;;;;;;;23.70;48.40;;;;;;491699;240;1137;-73
2022/08/02 00:31:41;;;;;;;;;;;23.70;48.30;;;;;;491684;240;1037;-73
2022/08/02 00:33:42;;;;;;;;;;;23.70;48.30;;;;;;491647;240;999;-72
2022/08/02 00:35:46;;;;;;;;;;;23.70;48.30;;;;;;491656;240;1056;-73
2022/08/02 00:37:45;;;;;;;;;;;23.70;48.30;;;;;;491616;240;1359;-73
2022/08/02 00:39:47;;;;;;;;;;;23.70;48.30;;;;;;491658;240;1137;-73
2022/08/02 00:41:48;;;;;;;;;;;23.70;48.20;;;;;;491593;240;2184;-73
2022/08/02 00:43:49;;;;;;;;;;;23.70;48.30;;;;;;491507;240;1093;-73
2022/08/02 00:45:50;;;;;;;;;;;23.70;48.30;;;;;;491556;240;1279;-73
2022/08/02 00:47:52;;;;;;;;;;;23.60;48.30;;;;;;491604;240;1163;-73
2022/08/02 00:49:53;;;;;;;;;;;23.70;48.40;;;;;;491631;240;1102;-73
2022/08/02 00:51:54;;;;;;;;;;;23.70;48.30;;;;;;491588;240;1291;-73
2022/08/02 00:53:56;;;;;;;;;;;23.70;48.20;;;;;;491526;240;1126;-73
2022/08/02 00:55:57;;;;;;;;;;;23.60;48.30;;;;;;491546;240;1129;-73
2022/08/02 00:57:59;;;;;;;;;;;23.60;48.20;;;;;;491564;240;1118;-73
2022/08/02 01:00:00;;;;;;;;;;;23.60;48.30;;;;;;491585;240;1350;-73
2022/08/02 01:02:01;;;;;;;;;;;23.60;48.40;;;;;;491589;240;2101;-73
2022/08/02 01:04:03;;;;;;;;;;;23.60;48.30;;;;;;491566;240;1049;-73
2022/08/02 01:06:04;;;;;;;;;;;23.60;48.30;;;;;;491697;240;1240;-73
2022/08/02 01:08:05;;;;;;;;;;;23.70;48.20;;;;;;491623;240;2155;-73
2022/08/02 01:10:06;;;;;;;;;;;23.70;48.10;;;;;;491647;240;1129;-73
2022/08/02 01:12:08;;;;;;;;;;;23.70;48.20;;;;;;491550;240;1327;-73
2022/08/02 01:14:09;;;;;;;;;;;23.60;48.20;;;;;;491649;240;1123;-73
2022/08/02 01:16:10;;;;;;;;;;;23.60;48.20;;;;;;491651;240;1227;-73
2022/08/02 01:18:13;;;;;;;;;;;23.60;48.30;;;;;;491535;240;1172;-73
2022/08/02 01:20:13;;;;;;;;;;;23.60;48.20;;;;;;491576;240;2484;-73
2022/08/02 01:22:14;;;;;;;;;;;23.60;48.30;;;;;;491612;240;2121;-73
2022/08/02 01:24:16;;;;;;;;;;;23.60;48.30;;;;;;491661;240;1090;-73
2022/08/02 01:26:17;;;;;;;;;;;23.50;48.40;;;;;;491615;240;1143;-73
2022/08/02 01:28:18;;;;;;;;;;;23.50;48.50;;;;;;491577;240;1295;-73
2022/08/02 01:30:20;;;;;;;;;;;23.50;48.50;;;;;;491618;240;1179;-73
2022/08/02 01:32:21;;;;;;;;;;;23.50;48.50;;;;;;491621;240;1658;-73
2022/08/02 01:34:22;;;;;;;;;;;23.50;48.40;;;;;;491704;240;1084;-73
2022/08/02 01:36:26;;;;;;;;;;;23.50;48.50;;;;;;491606;240;1161;-73
2022/08/02 01:38:25;;;;;;;;;;;23.60;48.40;;;;;;491636;240;2327;-73
2022/08/02 01:40:26;;;;;;;;;;;23.50;48.40;;;;;;491615;240;1229;-73
2022/08/02 01:42:28;;;;;;;;;;;23.50;48.40;;;;;;491598;240;2191;-73
2022/08/02 01:44:29;;;;;;;;;;;23.60;48.40;;;;;;491676;240;1125;-73
2022/08/02 01:46:30;;;;;;;;;;;23.50;48.40;;;;;;491692;240;1329;-73
2022/08/02 01:48:32;;;;;;;;;;;23.40;48.60;;;;;;491675;240;1147;-73
2022/08/02 01:50:33;;;;;;;;;;;23.30;48.80;;;;;;491653;240;1130;-73
2022/08/02 01:52:34;;;;;;;;;;;23.40;48.90;;;;;;491678;240;1102;-73
2022/08/02 01:54:36;;;;;;;;;;;23.40;48.90;;;;;;491695;240;1043;-73
2022/08/02 01:56:37;;;;;;;;;;;23.40;49.00;;;;;;491666;240;1170;-73
2022/08/02 01:58:38;;;;;;;;;;;23.40;48.80;;;;;;491632;240;1178;-73
2022/08/02 02:00:40;;;;;;;;;;;23.40;48.80;;;;;;491620;240;981;-73
2022/08/02 02:02:41;;;;;;;;;;;23.40;48.80;;;;;;491622;240;2125;-73
2022/08/02 02:04:43;;;;;;;;;;;23.40;48.90;;;;;;491617;240;1068;-73
2022/08/02 02:06:44;;;;;;;;;;;23.40;48.90;;;;;;491537;240;1260;-73
2022/08/02 02:08:45;;;;;;;;;;;23.40;48.90;;;;;;491636;240;1120;-73
2022/08/02 02:10:46;;;;;;;;;;;23.40;48.80;;;;;;491641;240;1194;-73
2022/08/02 02:12:48;;;;;;;;;;;23.40;48.80;;;;;;491579;240;1228;-73
2022/08/02 02:14:49;;;;;;;;;;;23.40;48.80;;;;;;491659;240;1128;-73
2022/08/02 02:16:50;;;;;;;;;;;23.40;48.80;;;;;;491666;240;1367;-73
2022/08/02 02:18:52;;;;;;;;;;;23.40;48.80;;;;;;491586;240;1184;-73
2022/08/02 02:20:53;;;;;;;;;;;23.30;48.90;;;;;;491659;240;1260;-73
2022/08/02 02:22:55;;;;;;;;;;;23.30;49.00;;;;;;491640;240;2179;-73
2022/08/02 02:24:56;;;;;;;;;;;23.30;49.00;;;;;;491637;240;981;-73
2022/08/02 02:26:57;;;;;;;;;;;23.30;49.00;;;;;;491569;240;1223;-73
2022/08/02 02:28:58;;;;;;;;;;;23.30;48.90;;;;;;491552;240;1170;-73
2022/08/02 02:31:00;;;;;;;;;;;23.30;49.10;;;;;;491564;240;2216;-73
2022/08/02 02:33:01;;;;;;;;;;;23.30;49.10;;;;;;491607;240;1086;-73
2022/08/02 02:35:03;;;;;;;;;;;23.30;49.10;;;;;;491620;240;964;-73
2022/08/02 02:37:04;;;;;;;;;;;23.30;49.00;;;;;;491638;240;1302;-73
2022/08/02 02:39:06;;;;;;;;;;;23.30;49.00;;;;;;491592;240;942;-73
2022/08/02 02:41:07;;;;;;;;;;;23.20;49.10;;;;;;491667;240;1273;-72
2022/08/02 02:43:09;;;;;;;;;;;23.30;49.20;;;;;;491576;240;2196;-73
2022/08/02 02:45:10;;;;;;;;;;;23.30;49.20;;;;;;491668;240;1000;-73
2022/08/02 02:47:11;;;;;;;;;;;23.30;49.20;;;;;;491596;240;1205;-73
2022/08/02 02:49:13;;;;;;;;;;;23.30;49.10;;;;;;491629;240;1290;-73
2022/08/02 02:51:14;;;;;;;;;;;23.20;49.20;;;;;;491677;240;1449;-73
2022/08/02 02:53:15;;;;;;;;;;;23.20;49.30;;;;;;491587;240;1109;-73
2022/08/02 02:55:16;;;;;;;;;;;23.20;49.20;;;;;;491597;240;992;-73
2022/08/02 02:57:18;;;;;;;;;;;23.20;49.20;;;;;;491587;240;1215;-73
2022/08/02 02:59:19;;;;;;;;;;;23.20;49.30;;;;;;491647;240;1221;-73
2022/08/02 03:01:27;;;;;;;;;;;23.20;49.30;;;;;;491618;240;947;-74
2022/08/02 03:03:28;;;;;;;;;;;23.20;49.20;;;;;;491648;240;2121;-73
2022/08/02 03:05:29;;;;;;;;;;;23.20;49.20;;;;;;491667;240;1341;-73
2022/08/02 03:07:31;;;;;;;;;;;23.20;49.30;;;;;;491678;240;1219;-73
2022/08/02 03:09:32;;;;;;;;;;;23.20;49.40;;;;;;491686;240;1163;-73
2022/08/02 03:11:33;;;;;;;;;;;23.20;49.30;;;;;;491634;240;1254;-73
2022/08/02 03:13:35;;;;;;;;;;;23.20;49.30;;;;;;491592;240;1275;-73
2022/08/02 03:15:36;;;;;;;;;;;23.20;49.20;;;;;;491604;240;1057;-73
2022/08/02 03:17:37;;;;;;;;;;;23.20;49.30;;;;;;491607;240;1353;-73
2022/08/02 03:19:39;;;;;;;;;;;23.20;49.30;;;;;;491516;240;1128;-73
2022/08/02 03:21:40;;;;;;;;;;;23.20;49.20;;;;;;491510;240;1183;-73
2022/08/02 03:23:41;;;;;;;;;;;23.20;49.10;;;;;;491677;240;2184;-73
2022/08/02 03:25:43;;;;;;;;;;;23.20;49.20;;;;;;491566;240;1054;-73
2022/08/02 03:27:44;;;;;;;;;;;23.20;49.20;;;;;;491573;240;1155;-73
2022/08/02 03:29:46;;;;;;;;;;;23.30;49.10;;;;;;491574;240;1252;-73
2022/08/02 03:31:47;;;;;;;;;;;23.20;49.20;;;;;;491565;240;1102;-73
2022/08/02 03:33:48;;;;;;;;;;;23.20;49.20;;;;;;491557;240;1090;-73
2022/08/02 03:35:49;;;;;;;;;;;23.20;49.20;;;;;;491570;240;1127;-73
2022/08/02 03:37:51;;;;;;;;;;;23.20;49.30;;;;;;491595;240;1264;-73
2022/08/02 03:39:52;;;;;;;;;;;23.20;49.30;;;;;;491618;240;1337;-73
2022/08/02 03:41:53;;;;;;;;;;;23.20;49.30;;;;;;491596;240;1148;-72
2022/08/02 03:43:55;;;;;;;;;;;23.20;49.30;;;;;;491565;240;2171;-72
2022/08/02 03:45:56;;;;;;;;;;;23.10;49.40;;;;;;491668;240;1220;-72
2022/08/02 03:47:57;;;;;;;;;;;23.10;49.50;;;;;;491647;240;1199;-73
2022/08/02 03:49:59;;;;;;;;;;;23.00;49.50;;;;;;491610;240;1106;-73
2022/08/02 03:52:00;;;;;;;;;;;23.10;49.50;;;;;;491616;240;1164;-73
2022/08/02 03:54:01;;;;;;;;;;;23.20;49.40;;;;;;491582;240;1194;-73
2022/08/02 03:56:03;;;;;;;;;;;23.20;49.30;;;;;;491573;240;1160;-73
2022/08/02 03:58:04;;;;;;;;;;;23.20;49.30;;;;;;491486;240;1210;-73
2022/08/02 04:00:05;;;;;;;;;;;23.10;49.30;;;;;;491543;240;1226;-73
2022/08/02 04:02:07;;;;;;;;;;;23.10;49.40;;;;;;491612;240;1142;-73
2022/08/02 04:04:08;;;;;;;;;;;23.10;49.40;;;;;;491594;240;2180;-73
2022/08/02 04:06:09;;;;;;;;;;;23.10;49.40;;;;;;491614;240;1066;-73
2022/08/02 04:08:11;;;;;;;;;;;23.20;49.40;;;;;;491596;240;1250;-72
2022/08/02 04:10:12;;;;;;;;;;;23.20;49.30;;;;;;491554;240;1178;-72
2022/08/02 04:12:13;;;;;;;;;;;23.20;49.20;;;;;;491471;240;1151;-73
2022/08/02 04:14:14;;;;;;;;;;;23.20;49.40;;;;;;491525;240;1214;-73
2022/08/02 04:16:16;;;;;;;;;;;23.20;49.40;;;;;;491509;240;1158;-73
2022/08/02 04:18:17;;;;;;;;;;;23.20;49.40;;;;;;491444;240;1049;-73
2022/08/02 04:20:19;;;;;;;;;;;23.10;49.40;;;;;;491433;240;1134;-72
2022/08/02 04:22:20;;;;;;;;;;;23.10;49.50;;;;;;491425;240;1112;-72
2022/08/02 04:24:21;;;;;;;;;;;23.10;49.50;;;;;;491361;240;2175;-72
2022/08/02 04:26:23;;;;;;;;;;;23.10;49.60;;;;;;491415;240;1363;-72
2022/08/02 04:28:24;;;;;;;;;;;23.00;49.60;;;;;;491371;240;1017;-72
2022/08/02 04:30:26;;;;;;;;;;;23.00;49.70;;;;;;491298;240;1243;-72
2022/08/02 04:32:27;;;;;;;;;;;23.10;49.60;;;;;;491316;240;1091;-72
2022/08/02 04:34:28;;;;;;;;;;;23.10;49.60;;;;;;491365;240;1043;-72
2022/08/02 04:36:30;;;;;;;;;;;23.10;49.60;;;;;;491373;240;1073;-73
2022/08/02 04:38:31;;;;;;;;;;;23.10;49.50;;;;;;491286;240;1033;-72
2022/08/02 04:40:32;;;;;;;;;;;23.10;49.60;;;;;;491356;240;1335;-72
2022/08/02 04:42:34;;;;;;;;;;;23.10;49.60;;;;;;491186;240;1115;-72
2022/08/02 04:44:35;;;;;;;;;;;23.10;49.60;;;;;;491309;240;2208;-72
2022/08/02 04:46:36;;;;;;;;;;;23.10;49.50;;;;;;491396;240;1094;-72
2022/08/02 04:48:37;;;;;;;;;;;23.10;49.50;;;;;;491309;240;1204;-72
2022/08/02 04:50:39;;;;;;;;;;;23.10;49.40;;;;;;491213;240;1206;-72
2022/08/02 04:52:40;;;;;;;;;;;23.10;49.50;;;;;;491404;240;1296;-72
2022/08/02 04:54:42;;;;;;;;;;;23.10;49.50;;;;;;491237;240;1161;-72
2022/08/02 04:56:43;;;;;;;;;;;23.10;49.60;;;;;;491244;240;1383;-72
2022/08/02 04:58:44;;;;;;;;;;;23.00;49.60;;;;;;491266;240;1124;-72
2022/08/02 05:00:46;;;;;;;;;;;23.00;49.70;;;;;;491435;240;1298;-72
2022/08/02 05:02:47;;;;;;;;;;;23.10;49.60;;;;;;491358;240;2130;-72
2022/08/02 05:04:50;;;;;;;;;;;23.30;49.20;;;;;;491237;240;1121;-72
2022/08/02 05:06:49;;;;;;;;;;;23.40;48.90;;;;;;491278;240;2032;-73
2022/08/02 05:08:51;;;;;;;;;;;23.40;48.70;;;;;;491084;240;1092;-72
2022/08/02 05:10:52;;;;;;;;;;;23.50;48.70;;;;;;491181;240;1175;-72
2022/08/02 05:12:54;;;;;;;;;;;23.50;48.70;;;;;;491138;240;1057;-72
2022/08/02 05:14:55;;;;;;;;;;;23.50;48.70;;;;;;491335;240;1110;-72
2022/08/02 05:16:56;;;;;;;;;;;23.40;48.70;;;;;;491255;240;1276;-72
2022/08/02 05:18:57;;;;;;;;;;;23.40;48.80;;;;;;491272;240;953;-72
2022/08/02 05:20:59;;;;;;;;;;;23.50;48.80;;;;;;491277;240;962;-72
2022/08/02 05:23:02;;;;;;;;;;;23.50;48.70;;;;;;491231;240;2179;-72
2022/08/02 05:25:02;;;;;;;;;;;23.60;48.50;;;;;;491211;240;2150;-72
2022/08/02 05:27:03;;;;;;;;;;;23.60;48.50;;;;;;491129;240;1062;-72
2022/08/02 05:29:04;;;;;;;;;;;23.60;48.40;;;;;;491305;240;952;-72
2022/08/02 05:31:06;;;;;;;;;;;23.60;48.40;;;;;;491174;240;1211;-73
2022/08/02 05:33:07;;;;;;;;;;;23.50;48.60;;;;;;491212;240;1032;-73
2022/08/02 05:35:09;;;;;;;;;;;23.40;48.80;;;;;;491131;240;965;-72
2022/08/02 05:37:10;;;;;;;;;;;23.50;48.80;;;;;;491170;240;1098;-72
2022/08/02 05:39:11;;;;;;;;;;;23.30;48.90;;;;;;491232;240;1044;-72
2022/08/02 05:41:13;;;;;;;;;;;23.30;49.10;;;;;;491211;240;1023;-72
2022/08/02 05:43:14;;;;;;;;;;;23.30;49.10;;;;;;491039;240;2191;-72
2022/08/02 05:45:16;;;;;;;;;;;23.40;49.10;;;;;;491177;240;1298;-72
2022/08/02 05:47:17;;;;;;;;;;;23.30;49.30;;;;;;491131;240;2310;-72
2022/08/02 05:49:18;;;;;;;;;;;23.30;49.30;;;;;;491128;240;1103;-72
2022/08/02 05:51:19;;;;;;;;;;;23.30;49.10;;;;;;491138;240;942;-72
2022/08/02 05:53:21;;;;;;;;;;;23.50;48.90;;;;;;491091;240;968;-72
2022/08/02 05:55:22;;;;;;;;;;;23.50;48.90;;;;;;491173;240;966;-72
2022/08/02 05:57:23;;;;;;;;;;;23.40;48.90;;;;;;491107;240;1089;-72
2022/08/02 05:59:25;;;;;;;;;;;23.50;48.80;;;;;;491196;240;1038;-72
2022/08/02 06:01:26;;;;;;;;;;;23.50;48.80;;;;;;491042;240;1212;-72
2022/08/02 06:03:27;;;;;;;;;;;23.50;48.70;;;;;;491019;240;2125;-72
2022/08/02 06:05:29;;;;;;;;;;;23.50;48.70;;;;;;491009;240;1023;-72
2022/08/02 06:07:30;;;;;;;;;;;23.40;48.80;;;;;;490918;240;1140;-72
2022/08/02 06:09:32;;;;;;;;;;;23.40;49.00;;;;;;490890;240;984;-72
2022/08/02 06:11:33;;;;;;;;;;;23.30;49.10;;;;;;490928;240;1022;-72
2022/08/02 06:13:34;;;;;;;;;;;23.40;49.10;;;;;;490977;240;1029;-73
2022/08/02 06:15:36;;;;;;;;;;;23.40;49.00;;;;;;490972;240;1338;-72
2022/08/02 06:17:37;;;;;;;;;;;23.30;49.20;;;;;;490946;240;1060;-72
2022/08/02 06:19:38;;;;;;;;;;;23.30;49.10;;;;;;491074;240;1175;-72
2022/08/02 06:21:40;;;;;;;;;;;23.30;49.20;;;;;;491052;240;1217;-72
2022/08/02 06:23:41;;;;;;;;;;;23.30;49.30;;;;;;491011;240;2188;-72
2022/08/02 06:25:42;;;;;;;;;;;23.40;49.00;;;;;;491064;240;1200;-72
2022/08/02 06:27:44;;;;;;;;;;;23.40;48.90;;;;;;491026;240;1087;-72
2022/08/02 06:29:45;;;;;;;;;;;23.40;49.10;;;;;;490976;240;1221;-73
2022/08/02 06:31:46;;;;;;;;;;;23.20;49.30;;;;;;490965;240;1195;-72
2022/08/02 06:33:48;;;;;;;;;;;23.20;49.40;;;;;;491010;240;1175;-72
2022/08/02 06:35:49;;;;;;;;;;;23.20;49.40;;;;;;491044;240;1215;-72
2022/08/02 06:37:50;;;;;;;;;;;23.40;49.10;;;;;;490953;240;1120;-72
2022/08/02 06:39:52;;;;;;;;;;;23.50;49.00;;;;;;490863;240;1164;-72
2022/08/02 06:41:53;;;;;;;;;;;23.40;49.10;;;;;;490866;240;1170;-72
2022/08/02 06:43:54;;;;;;;;;;;23.30;49.20;;;;;;490814;240;2173;-72
2022/08/02 06:45:56;;;;;;;;;;;23.30;49.40;;;;;;490376;240;1360;-72
2022/08/02 06:47:57;;;;;;;;;;;23.20;49.40;;;;;;490630;240;1045;-72
2022/08/02 06:49:58;;;;;;;;;;;23.20;49.40;;;;;;490660;240;1158;-73
2022/08/02 06:52:00;;;;;;;;;;;23.20;49.60;;;;;;490676;240;1232;-73
2022/08/02 06:54:01;;;;;;;;;;;23.10;49.70;;;;;;490662;240;1235;-73
2022/08/02 06:56:02;;;;;;;;;;;23.10;49.80;;;;;;490747;240;1137;-73
2022/08/02 06:58:04;;;;;;;;;;;23.20;49.70;;;;;;490706;240;1329;-73
2022/08/02 07:00:07;;;;;;;;;;;23.20;49.40;;;;;;490587;240;1091;-73
2022/08/02 07:02:06;;;;;;;;;;;23.30;49.40;;;;;;490723;240;2257;-72
2022/08/02 07:04:08;;;;;;;;;;;23.20;49.60;;;;;;490623;240;2180;-73
2022/08/02 07:06:09;;;;;;;;;;;23.20;49.70;;;;;;490656;240;1285;-73
2022/08/02 07:08:10;;;;;;;;;;;23.30;49.50;;;;;;490698;240;1219;-73
2022/08/02 07:10:12;;;;;;;;;;;23.30;49.50;;;;;;490649;240;1142;-73
2022/08/02 07:12:13;;;;;;;;;;;23.20;49.60;;;;;;490488;240;1211;-72
2022/08/02 07:14:14;;;;;;;;;;;23.20;49.60;;;;;;490723;240;1230;-72
2022/08/02 07:16:16;;;;;;;;;;;23.10;49.80;;;;;;490749;240;1226;-72
2022/08/02 07:18:17;;;;;;;;;;;23.10;50.00;;;;;;490790;240;1322;-72
2022/08/02 07:20:18;;;;;;;;;;;23.10;50.20;;;;;;490607;240;1265;-72
2022/08/02 07:22:22;;;;;;;;;;;23.10;50.20;;;;;;490562;240;1119;-72
2022/08/02 07:24:21;;;;;;;;;;;23.20;50.00;;;;;;490697;240;2193;-73
2022/08/02 07:26:22;;;;;;;;;;;23.20;50.00;;;;;;490698;240;1119;-72
2022/08/02 07:28:24;;;;;;;;;;;23.20;49.80;;;;;;490682;240;1129;-72
2022/08/02 07:30:25;;;;;;;;;;;23.40;49.60;;;;;;490723;240;1176;-72
2022/08/02 07:32:26;;;;;;;;;;;23.50;49.40;;;;;;490649;240;1201;-72
2022/08/02 07:34:28;;;;;;;;;;;23.40;49.40;;;;;;490645;240;1102;-72
2022/08/02 07:36:29;;;;;;;;;;;23.30;49.60;;;;;;490627;240;1222;-72
2022/08/02 07:38:30;;;;;;;;;;;23.30;49.90;;;;;;490452;240;1356;-72
2022/08/02 07:40:32;;;;;;;;;;;23.30;50.00;;;;;;490688;240;1243;-72
2022/08/02 07:42:33;;;;;;;;;;;23.30;49.80;;;;;;490719;240;1241;-73
2022/08/02 07:44:34;;;;;;;;;;;23.40;49.60;;;;;;490692;240;2136;-72
2022/08/02 07:46:35;;;;;;;;;;;23.50;49.50;;;;;;490650;240;1350;-72
2022/08/02 07:48:37;;;;;;;;;;;23.50;49.60;;;;;;490755;240;1221;-72
2022/08/02 07:50:38;;;;;;;;;;;23.50;49.70;;;;;;490653;240;1094;-72
2022/08/02 07:52:39;;;;;;;;;;;23.50;49.60;;;;;;490737;241;1139;-72
2022/08/02 07:54:41;;;;;;;;;;;23.40;49.80;;;;;;490885;240;1244;-72
2022/08/02 07:56:42;;;;;;;;;;;23.50;49.80;;;;;;490837;240;1268;-73
2022/08/02 07:58:43;;;;;;;;;;;23.50;49.60;;;;;;490702;240;1199;-73
2022/08/02 08:00:45;;;;;;;;;;;23.60;49.40;;;;;;490630;240;1237;-73
2022/08/02 08:02:46;;;;;;;;;;;23.60;49.30;;;;;;490688;240;1217;-73
2022/08/02 08:04:48;;;;;;;;;;;23.60;49.30;;;;;;490818;240;2172;-72
2022/08/02 08:06:51;;;;;;;;;;;23.70;49.40;;;;;;490616;240;1167;-73
2022/08/02 08:08:50;;;;;;;;;;;23.70;49.40;;;;;;490798;240;2103;-73
2022/08/02 08:10:52;;;;;;;;;;;23.70;49.40;;;;;;490851;240;1212;-73
2022/08/02 08:12:54;;;;;;;;;;;23.70;49.30;;;;;;490809;240;1169;-73
2022/08/02 08:14:54;;;;;;;;;;;23.70;49.40;;;;;;490599;240;2346;-72
2022/08/02 08:16:55;;;;;;;;;;;23.60;49.70;;;;;;490653;240;1355;-72
2022/08/02 08:18:57;;;;;;;;;;;23.50;49.80;;;;;;490599;240;1089;-72
2022/08/02 08:20:59;;;;;;;;;;;23.50;50.00;;;;;;490600;240;1170;-72
2022/08/02 08:22:59;;;;;;;;;;;23.50;50.00;;;;;;490490;240;2235;-72
2022/08/02 08:25:01;;;;;;;;;;;23.50;50.00;;;;;;490618;240;2183;-73
2022/08/02 08:27:02;;;;;;;;;;;23.50;49.90;;;;;;490618;240;1103;-73
2022/08/02 08:29:05;;;;;;;;;;;23.60;49.80;;;;;;490628;240;1100;-73
2022/08/02 08:31:05;;;;;;;;;;;23.60;49.80;;;;;;490296;240;2580;-72
2022/08/02 08:33:06;;;;;;;;;;;23.50;49.90;;;;;;490459;240;1914;-73
2022/08/02 08:35:08;;;;;;;;;;;23.50;50.00;;;;;;490507;240;1200;-73
2022/08/02 08:37:09;;;;;;;;;;;23.50;50.10;;;;;;490766;240;1308;-73
2022/08/02 08:39:10;;;;;;;;;;;23.50;50.10;;;;;;490595;240;1121;-73
2022/08/02 08:41:11;;;;;;;;;;;23.50;50.00;;;;;;490587;240;1297;-72
2022/08/02 08:43:13;;;;;;;;;;;23.50;50.00;;;;;;490375;240;1145;-72
2022/08/02 08:45:16;;;;;;;;;;;23.60;50.00;;;;;;490562;240;2196;-72
2022/08/02 08:47:15;;;;;;;;;;;23.60;49.80;;;;;;490626;240;2130;-72
2022/08/02 08:49:17;;;;;;;;;;;23.60;49.80;;;;;;490677;240;1296;-72
2022/08/02 08:51:18;;;;;;;;;;;23.60;49.90;;;;;;490568;240;1304;-72
2022/08/02 08:53:19;;;;;;;;;;;23.60;50.00;;;;;;490520;240;1500;-72
2022/08/02 08:55:21;;;;;;;;;;;23.60;49.80;;;;;;490608;240;1267;-72
2022/08/02 08:57:22;;;;;;;;;;;23.70;49.80;;;;;;490566;240;1079;-72
2022/08/02 08:59:23;;;;;;;;;;;23.70;49.70;;;;;;490604;240;1069;-72
2022/08/02 09:01:25;;;;;;;;;;;23.70;49.60;;;;;;490628;240;1197;-73
2022/08/02 09:03:26;;;;;;;;;;;23.70;49.70;;;;;;490655;240;1238;-73
2022/08/02 09:05:28;;;;;;;;;;;23.70;49.70;;;;;;490535;240;2183;-73
2022/08/02 09:07:29;;;;;;;;;;;23.70;49.80;;;;;;490547;240;1246;-73
2022/08/02 09:09:30;;;;;;;;;;;23.70;49.90;;;;;;490582;240;1241;-73
2022/08/02 09:11:31;;;;;;;;;;;23.60;49.90;;;;;;490526;240;1179;-72
2022/08/02 09:13:33;;;;;;;;;;;23.60;50.00;;;;;;490525;240;1065;-72
2022/08/02 09:15:34;;;;;;;;;;;23.60;49.80;;;;;;490408;240;1371;-72
2022/08/02 09:17:35;;;;;;;;;;;23.70;49.80;;;;;;490566;240;1190;-73
2022/08/02 09:19:37;;;;;;;;;;;23.70;49.70;;;;;;490598;240;1197;-73
2022/08/02 09:21:38;;;;;;;;;;;23.70;49.70;;;;;;490625;240;1152;-72
2022/08/02 09:23:40;;;;;;;;;;;23.60;49.70;;;;;;490549;240;1091;-72
2022/08/02 09:25:41;;;;;;;;;;;23.70;49.80;;;;;;490533;240;2128;-73
2022/08/02 09:27:42;;;;;;;;;;;23.70;49.80;;;;;;490573;240;1286;-73
2022/08/02 09:29:44;;;;;;;;;;;23.60;49.80;;;;;;490575;240;1136;-73
2022/08/02 09:31:45;;;;;;;;;;;23.60;49.90;;;;;;490470;240;1229;-72
2022/08/02 09:33:46;;;;;;;;;;;23.60;50.00;;;;;;490489;240;1123;-72
2022/08/02 09:35:48;;;;;;;;;;;23.50;50.10;;;;;;490357;240;1223;-72
2022/08/02 09:37:49;;;;;;;;;;;23.50;50.30;;;;;;490472;240;1813;-72
2022/08/02 09:39:50;;;;;;;;;;;23.50;50.20;;;;;;490691;240;1300;-72
2022/08/02 09:41:52;;;;;;;;;;;23.60;50.10;;;;;;490665;240;1110;-73
2022/08/02 09:43:53;;;;;;;;;;;23.60;50.00;;;;;;490502;240;1372;-73
2022/08/02 09:45:54;;;;;;;;;;;23.70;49.90;;;;;;491058;240;2201;-72
2022/08/02 09:47:56;;;;;;;;;;;23.70;49.80;;;;;;490590;240;1226;-72
2022/08/02 09:49:57;;;;;;;;;;;23.70;49.70;;;;;;490680;240;1130;-73
2022/08/02 09:51:58;;;;;;;;;;;23.80;49.60;;;;;;490575;240;1199;-73
2022/08/02 09:54:00;;;;;;;;;;;23.90;49.50;;;;;;490668;240;1238;-73
2022/08/02 09:56:01;;;;;;;;;;;23.80;49.50;;;;;;490533;240;1151;-72
2022/08/02 09:58:02;;;;;;;;;;;23.80;49.60;;;;;;490647;240;1298;-72
2022/08/02 10:00:04;;;;;;;;;;;23.80;49.70;;;;;;490599;240;1227;-72
2022/08/02 10:02:05;;;;;;;;;;;23.70;49.70;;;;;;490599;240;1206;-72
2022/08/02 10:04:06;;;;;;;;;;;23.70;49.70;;;;;;490650;240;1276;-72
2022/08/02 10:06:08;;;;;;;;;;;23.70;49.80;;;;;;491489;240;2188;-72
2022/08/02 10:08:09;;;;;;;;;;;23.70;49.80;;;;;;491441;240;1105;-72
2022/08/02 10:10:11;;;;;;;;;;;23.70;49.70;;;;;;491460;240;1184;-72
2022/08/02 10:12:12;;;;;;;;;;;23.70;49.80;;;;;;490919;240;2171;-72
2022/08/02 10:14:13;;;;;;;;;;;23.60;49.90;;;;;;490540;240;1234;-72
2022/08/02 10:16:15;;;;;;;;;;;23.70;50.00;;;;;;490873;240;1159;-72
2022/08/02 10:18:16;;;;;;;;;;;23.70;50.00;;;;;;490948;240;1082;-72
2022/08/02 10:20:17;;;;;;;;;;;23.70;49.80;;;;;;490897;240;1220;-73
2022/08/02 10:22:18;;;;;;;;;;;23.80;49.70;;;;;;491481;240;1043;-72
2022/08/02 10:24:20;;;;;;;;;;;23.70;49.70;;;;;;490957;240;1170;-72
2022/08/02 10:26:21;;;;;;;;;;;23.70;49.70;;;;;;490608;240;2176;-72
2022/08/02 10:28:22;;;;;;;;;;;23.70;49.70;;;;;;490699;240;1090;-72
2022/08/02 10:30:24;;;;;;;;;;;23.70;49.60;;;;;;490975;240;1180;-72
2022/08/02 10:32:25;;;;;;;;;;;23.70;49.60;;;;;;490926;240;1328;-72
2022/08/02 10:34:26;;;;;;;;;;;23.80;49.40;;;;;;490822;240;1192;-72
2022/08/02 10:36:28;;;;;;;;;;;23.80;49.40;;;;;;490845;240;1081;-72
2022/08/02 10:38:29;;;;;;;;;;;23.80;49.30;;;;;;490926;240;1103;-72
2022/08/02 10:40:30;;;;;;;;;;;23.80;49.40;;;;;;491157;240;1094;-72
2022/08/02 10:42:32;;;;;;;;;;;23.80;49.30;;;;;;491039;240;1189;-72
2022/08/02 10:44:33;;;;;;;;;;;23.80;49.40;;;;;;490719;240;1116;-72
2022/08/02 10:46:34;;;;;;;;;;;23.80;49.40;;;;;;491080;240;2184;-73
2022/08/02 10:48:36;;;;;;;;;;;23.80;49.50;;;;;;490921;240;1228;-73
2022/08/02 10:50:37;;;;;;;;;;;23.80;49.40;;;;;;490716;240;2334;-73
2022/08/02 10:52:38;;;;;;;;;;;23.80;49.40;;;;;;491354;240;1148;-73
2022/08/02 10:54:40;;;;;;;;;;;23.80;49.40;;;;;;490781;240;999;-73
2022/08/02 10:56:41;;;;;;;;;;;23.80;49.40;;;;;;490642;240;1215;-72
2022/08/02 10:58:42;;;;;;;;;;;23.80;49.50;;;;;;491107;240;1126;-72
2022/08/02 11:00:44;;;;;;;;;;;23.80;49.50;;;;;;490719;240;1147;-72
2022/08/02 11:02:45;;;;;;;;;;;23.80;49.40;;;;;;490652;240;1291;-72
2022/08/02 11:04:47;;;;;;;;;;;23.80;49.40;;;;;;490661;240;1199;-72
2022/08/02 11:06:48;;;;;;;;;;;23.80;49.30;;;;;;490584;240;2120;-72
2022/08/02 11:08:49;;;;;;;;;;;23.80;49.20;;;;;;490607;240;1479;-72
2022/08/02 11:10:51;;;;;;;;;;;23.80;49.30;;;;;;490721;240;1027;-72
2022/08/02 11:12:52;;;;;;;;;;;23.80;49.40;;;;;;490670;240;1367;-72
2022/08/02 11:14:53;;;;;;;;;;;23.80;49.40;;;;;;490675;240;1247;-72
2022/08/02 11:16:55;;;;;;;;;;;23.80;49.30;;;;;;490426;240;1117;-72
2022/08/02 11:18:56;;;;;;;;;;;23.80;49.20;;;;;;490486;240;1102;-72
2022/08/02 11:20:57;;;;;;;;;;;23.90;49.20;;;;;;490701;240;1235;-72
2022/08/02 11:22:59;;;;;;;;;;;23.80;49.20;;;;;;490614;240;1177;-72
2022/08/02 11:25:00;;;;;;;;;;;23.70;49.30;;;;;;490726;240;2191;-72
2022/08/02 11:27:01;;;;;;;;;;;23.70;49.40;;;;;;490598;240;1297;-73
2022/08/02 11:29:03;;;;;;;;;;;23.70;49.60;;;;;;490627;240;1210;-72
2022/08/02 11:31:06;;;;;;;;;;;23.70;49.40;;;;;;490738;240;1272;-72
2022/08/02 11:33:05;;;;;;;;;;;23.70;49.50;;;;;;490767;240;2144;-72
2022/08/02 11:35:07;;;;;;;;;;;23.60;49.50;;;;;;490661;240;1270;-72
2022/08/02 11:37:09;;;;;;;;;;;23.60;49.60;;;;;;490726;240;1077;-72
2022/08/02 11:39:09;;;;;;;;;;;23.70;49.50;;;;;;490683;240;1964;-72
2022/08/02 11:41:11;;;;;;;;;;;23.70;49.60;;;;;;490650;240;1133;-72
2022/08/02 11:43:12;;;;;;;;;;;23.70;49.40;;;;;;490703;240;1107;-72
2022/08/02 11:45:13;;;;;;;;;;;23.70;49.50;;;;;;490644;240;2125;-72
2022/08/02 11:47:15;;;;;;;;;;;23.70;49.40;;;;;;490542;240;1256;-72
2022/08/02 11:49:16;;;;;;;;;;;23.70;49.40;;;;;;490617;240;1043;-72
2022/08/02 11:51:17;;;;;;;;;;;23.80;49.20;;;;;;490725;240;1234;-72
2022/08/02 11:53:19;;;;;;;;;;;23.90;49.10;;;;;;490769;240;1124;-73
2022/08/02 11:55:20;;;;;;;;;;;23.80;49.10;;;;;;490689;240;1337;-73
2022/08/02 11:57:21;;;;;;;;;;;23.70;49.30;;;;;;490735;240;1183;-73